Time;durP1;ratioP1;P1;durP2;ratioP2;P2;SDS_P1;SDS_P2;PMS_P1;PMS_P2;Temp;Humidity;BMP_temperature;BMP_pressure;BME280_temperature;BME280_humidity;BME280_pressure;Samples;Min_cycle;Max_cycle;Signal;HPM_P1;HPM_P2
2023/07/08 00:02:10;;;;;;;4.55;2.88;;;;;;;20.76;71.94;101205.97;5056307;28;20030;-70
2023/07/08 00:04:35;;;;;;;5.03;2.53;;;;;;;20.79;71.47;101210.06;5068475;28;20072;-69
2023/07/08 00:07:03;;;;;;;6.82;3.15;;;;;;;20.82;71.27;101213.09;5065943;28;20056;-69
2023/07/08 00:09:30;;;;;;;5.18;2.35;;;;;;;20.82;70.77;101215.75;5068321;28;20089;-68
2023/07/08 00:11:57;;;;;;;5.32;2.25;;;;;;;20.86;70.41;101209.06;5059535;28;20057;-68
2023/07/08 00:14:23;;;;;;;4.43;2.40;;;;;;;20.86;70.17;101210.88;5063705;28;20028;-69
2023/07/08 00:16:49;;;;;;;4.90;2.55;;;;;;;20.86;69.27;101209.06;5055974;28;21146;-70
2023/07/08 00:19:23;;;;;;;3.97;2.25;;;;;;;20.84;69.47;101220.84;5065599;28;20039;-69
2023/07/08 00:21:49;;;;;;;4.93;2.70;;;;;;;20.81;69.93;101221.25;5066753;28;20089;-70
2023/07/08 00:24:14;;;;;;;5.07;2.10;;;;;;;20.79;69.79;101226.75;5066992;28;20444;-69
2023/07/08 00:26:40;;;;;;;5.90;2.30;;;;;;;20.87;69.33;101236.38;5067457;28;20025;-69
2023/07/08 00:29:10;;;;;;;3.58;2.13;;;;;;;20.93;69.04;101237.41;5069110;28;20032;-70
2023/07/08 00:31:35;;;;;;;4.78;2.30;;;;;;;20.94;68.68;101244.34;5061093;28;20417;-68
2023/07/08 00:34:02;;;;;;;7.15;2.42;;;;;;;20.83;69.18;101243.88;5060534;28;20070;-69
2023/07/08 00:36:29;;;;;;;2.85;1.77;;;;;;;20.78;69.71;101251.59;5064279;28;20024;-70
2023/07/08 00:38:54;;;;;;;4.22;2.40;;;;;;;20.71;70.49;101253.38;5068712;28;20037;-70
2023/07/08 00:41:38;;;;;;;4.25;2.55;;;;;;;20.62;71.74;101257.16;5066993;28;20033;-68
2023/07/08 00:44:03;;;;;;;3.92;2.33;;;;;;;20.57;71.61;101254.28;5065908;28;20085;-68
2023/07/08 00:46:29;;;;;;;9.27;2.95;;;;;;;20.55;71.42;101253.63;5068595;28;20032;-69
2023/07/08 00:49:06;;;;;;;3.55;2.25;;;;;;;20.54;71.91;101252.00;5063286;28;20450;-69
2023/07/08 00:51:32;;;;;;;6.82;3.13;;;;;;;20.53;71.85;101256.47;5058920;28;20381;-70
2023/07/08 00:53:58;;;;;;;4.88;1.92;;;;;;;20.47;71.92;101265.19;5066255;28;20036;-71
2023/07/08 00:56:30;;;;;;;3.17;2.20;;;;;;;20.45;71.84;101279.59;5061428;28;20332;-69
2023/07/08 00:59:01;;;;;;;5.03;2.65;;;;;;;20.48;71.31;101277.41;5058444;28;20504;-69
2023/07/08 01:01:29;;;;;;;4.95;2.78;;;;;;;20.44;71.10;101281.44;5072314;28;20033;-67
2023/07/08 01:04:01;;;;;;;8.82;2.85;;;;;;;20.42;71.17;101278.16;5064030;28;20028;-68
2023/07/08 01:06:32;;;;;;;5.95;2.17;;;;;;;20.41;70.99;101281.00;5065173;28;20074;-68
2023/07/08 01:09:02;;;;;;;3.63;2.20;;;;;;;20.36;71.35;101286.81;5063232;28;20027;-69
2023/07/08 01:11:29;;;;;;;3.53;2.33;;;;;;;20.32;71.77;101282.91;5057588;28;20033;-67
2023/07/08 01:13:56;;;;;;;5.18;2.30;;;;;;;20.23;72.81;101285.88;5060266;28;20036;-69
2023/07/08 01:16:22;;;;;;;5.65;2.80;;;;;;;20.13;72.86;101281.72;5061932;28;20488;-68
2023/07/08 01:18:52;;;;;;;5.90;2.33;;;;;;;20.18;72.81;101278.50;5061195;28;20039;-69
2023/07/08 01:21:39;;;;;;;5.15;1.95;;;;;;;20.14;74.01;101275.41;5070361;28;20044;-68
2023/07/08 01:24:09;;;;;;;5.47;2.42;;;;;;;20.13;73.34;101271.13;5065319;28;20488;-67
2023/07/08 01:26:39;;;;;;;4.32;2.67;;;;;;;20.08;74.31;101270.88;5060423;28;20391;-69
2023/07/08 01:29:07;;;;;;;3.28;2.30;;;;;;;20.04;74.12;101266.97;5062148;28;20024;-69
2023/07/08 01:31:33;;;;;;;4.55;2.63;;;;;;;20.05;74.44;101263.31;5067656;28;20028;-68
2023/07/08 01:33:58;;;;;;;5.47;2.83;;;;;;;20.03;73.90;101257.38;5070669;28;20066;-68
2023/07/08 01:36:26;;;;;;;3.80;2.30;;;;;;;20.03;73.94;101257.38;5069836;28;20029;-69
2023/07/08 01:38:52;;;;;;;6.68;2.28;;;;;;;20.04;73.51;101256.38;5074885;28;20503;-70
2023/07/08 01:41:17;;;;;;;2.70;2.00;;;;;;;20.00;73.52;101247.19;5070598;28;20509;-69
2023/07/08 01:43:44;;;;;;;3.50;2.33;;;;;;;19.99;73.37;101245.53;5069279;28;20036;-69
2023/07/08 01:46:23;;;;;;;4.72;2.35;;;;;;;19.99;73.17;101240.25;5075145;28;20032;-68
2023/07/08 01:48:56;;;;;;;6.82;2.67;;;;;;;19.97;73.08;101242.25;5070831;28;20032;-68
2023/07/08 01:51:23;;;;;;;4.85;2.65;;;;;;;20.02;72.50;101241.69;5068557;28;20029;-69
2023/07/08 01:53:49;;;;;;;4.80;2.45;;;;;;;20.02;72.63;101239.06;5065705;28;20044;-68
2023/07/08 01:56:15;;;;;;;4.47;2.50;;;;;;;20.05;72.88;101233.41;5073808;28;20028;-68
2023/07/08 01:58:41;;;;;;;3.83;2.17;;;;;;;20.04;73.10;101232.56;5073533;28;20447;-69
2023/07/08 02:01:07;;;;;;;6.80;2.38;;;;;;;20.04;73.37;101224.63;5071679;28;20115;-68
2023/07/08 02:03:33;;;;;;;4.72;2.17;;;;;;;19.99;73.76;101218.28;5069180;28;20051;-68
2023/07/08 02:05:58;;;;;;;3.33;2.33;;;;;;;19.97;73.21;101215.81;5063708;28;20044;-68
2023/07/08 02:08:24;;;;;;;4.57;2.55;;;;;;;20.03;73.08;101215.06;5069714;28;20036;-69
2023/07/08 02:10:53;;;;;;;5.78;2.78;;;;;;;20.09;72.43;101218.78;5063692;28;20037;-69
2023/07/08 02:13:20;;;;;;;3.75;2.13;;;;;;;20.16;71.79;101217.84;5061925;28;20068;-69
2023/07/08 02:15:45;;;;;;;4.30;2.25;;;;;;;20.21;71.26;101212.00;5069989;28;20403;-70
2023/07/08 02:18:10;;;;;;;3.88;2.83;;;;;;;20.19;71.23;101206.88;5061982;28;20111;-70
2023/07/08 02:20:36;;;;;;;3.38;2.35;;;;;;;20.14;71.89;101219.88;5070142;28;20032;-69
2023/07/08 02:23:02;;;;;;;4.68;2.40;;;;;;;20.05;72.65;101221.00;5060289;28;20063;-70
2023/07/08 02:25:28;;;;;;;3.63;2.40;;;;;;;20.01;73.15;101226.84;5065206;28;20385;-69
2023/07/08 02:27:56;;;;;;;3.92;2.72;;;;;;;19.91;73.87;101227.13;5070501;28;20036;-68
2023/07/08 02:30:23;;;;;;;4.68;2.83;;;;;;;19.87;74.54;101220.59;5066813;28;20044;-70
2023/07/08 02:32:56;;;;;;;5.32;2.80;;;;;;;19.83;74.95;101228.09;5060009;28;20031;-69
2023/07/08 02:35:22;;;;;;;5.53;2.45;;;;;;;19.81;74.78;101237.22;5065865;28;20449;-69
2023/07/08 02:37:47;;;;;;;3.05;2.00;;;;;;;19.82;74.53;101236.22;5077939;28;20029;-69
2023/07/08 02:40:14;;;;;;;6.43;2.75;;;;;;;19.78;74.57;101230.47;5071396;28;20043;-68
2023/07/08 02:42:39;;;;;;;5.40;2.22;;;;;;;19.76;75.13;101229.03;5061915;28;20124;-69
2023/07/08 02:45:05;;;;;;;5.55;2.88;;;;;;;19.72;75.49;101231.22;5064926;28;20044;-69
2023/07/08 02:47:31;;;;;;;3.97;1.80;;;;;;;19.67;75.56;101230.94;5062249;28;20021;-69
2023/07/08 02:49:56;;;;;;;2.95;2.10;;;;;;;19.63;75.99;101232.31;5056097;28;20031;-69
2023/07/08 02:52:22;;;;;;;4.53;2.40;;;;;;;19.60;75.90;101222.13;5068004;28;20514;-68
2023/07/08 02:54:47;;;;;;;3.38;2.65;;;;;;;19.62;75.79;101221.94;5067642;28;20499;-69
2023/07/08 02:57:13;;;;;;;5.13;2.47;;;;;;;19.61;75.78;101220.28;5068574;28;20034;-69
2023/07/08 02:59:38;;;;;;;6.65;3.10;;;;;;;19.58;75.76;101218.03;5074453;28;20100;-68
2023/07/08 03:02:04;;;;;;;4.00;2.13;;;;;;;19.61;75.53;101217.66;5066461;28;20140;-69
2023/07/08 03:04:30;;;;;;;5.00;2.70;;;;;;;19.55;76.20;101212.09;5064163;28;20107;-68
2023/07/08 03:06:55;;;;;;;4.32;2.90;;;;;;;19.54;76.43;101210.47;5065635;28;20035;-69
2023/07/08 03:09:21;;;;;;;5.13;2.53;;;;;;;19.49;76.85;101206.69;5072322;28;20039;-68
2023/07/08 03:11:46;;;;;;;6.15;2.42;;;;;;;19.43;77.46;101205.59;5068398;28;20458;-69
2023/07/08 03:14:12;;;;;;;3.80;2.08;;;;;;;19.37;77.95;101210.84;5068642;28;20020;-68
2023/07/08 03:16:37;;;;;;;5.00;2.55;;;;;;;19.35;77.50;101203.09;5069738;28;20133;-68
2023/07/08 03:19:04;;;;;;;6.22;2.22;;;;;;;19.33;77.96;101202.47;5065371;28;20495;-70
2023/07/08 03:21:30;;;;;;;6.35;2.55;;;;;;;19.33;77.83;101191.88;5065635;28;20094;-69
2023/07/08 03:23:55;;;;;;;4.15;2.35;;;;;;;19.35;77.62;101187.25;5064861;28;20024;-69
2023/07/08 03:26:24;;;;;;;4.45;2.55;;;;;;;19.40;77.36;101187.47;5069207;28;20032;-69
2023/07/08 03:28:50;;;;;;;7.13;3.13;;;;;;;19.43;77.01;101184.47;5057950;28;20487;-70
2023/07/08 03:31:16;;;;;;;3.58;2.08;;;;;;;19.43;76.66;101187.13;5069408;28;20523;-69
2023/07/08 03:33:42;;;;;;;3.30;2.30;;;;;;;19.48;76.07;101183.91;5070810;28;21236;-69
2023/07/08 03:36:12;;;;;;;4.75;2.50;;;;;;;19.50;75.43;101188.00;5074123;28;20360;-69
2023/07/08 03:38:38;;;;;;;5.55;2.65;;;;;;;19.49;75.30;101186.38;5067494;28;20033;-69
2023/07/08 03:41:04;;;;;;;5.80;2.72;;;;;;;19.50;75.37;101179.28;5067434;28;20031;-69
2023/07/08 03:43:30;;;;;;;4.25;2.28;;;;;;;19.51;75.10;101183.59;5060083;28;20056;-69
2023/07/08 03:45:55;;;;;;;4.53;2.22;;;;;;;19.49;75.62;101174.97;5073380;28;20036;-70
2023/07/08 03:48:21;;;;;;;10.90;2.60;;;;;;;19.49;75.50;101186.38;5068552;28;20025;-70
2023/07/08 03:50:46;;;;;;;4.07;2.10;;;;;;;19.48;75.58;101183.91;5059205;28;20117;-69
2023/07/08 03:53:11;;;;;;;8.05;2.22;;;;;;;19.44;76.33;101182.66;5067439;28;20075;-71
2023/07/08 03:55:37;;;;;;;5.38;2.35;;;;;;;19.42;76.26;101188.13;5060484;28;20032;-69
2023/07/08 03:58:02;;;;;;;4.40;2.15;;;;;;;19.33;76.92;101183.16;5060782;28;20056;-68
2023/07/08 04:00:28;;;;;;;3.22;2.42;;;;;;;19.25;77.23;101184.06;5067304;28;20103;-69
2023/07/08 04:02:53;;;;;;;3.58;2.42;;;;;;;19.17;77.84;101190.25;5067085;28;20501;-68
2023/07/08 04:05:22;;;;;;;4.75;2.25;;;;;;;19.16;78.19;101199.19;5070701;28;20036;-70
2023/07/08 04:07:47;;;;;;;5.75;2.85;;;;;;;19.15;78.16;101199.38;5070534;28;20506;-69
2023/07/08 04:10:13;;;;;;;5.32;2.33;;;;;;;19.12;78.45;101200.53;5063643;28;20036;-69
2023/07/08 04:12:40;;;;;;;3.55;2.38;;;;;;;19.09;78.83;101194.81;5060221;28;20132;-69
2023/07/08 04:15:08;;;;;;;5.35;2.38;;;;;;;19.05;79.09;101189.06;5059981;28;20102;-69
2023/07/08 04:17:57;;;;;;;4.03;2.60;;;;;;;19.06;78.60;101179.31;5066075;28;20374;-69
2023/07/08 04:20:23;;;;;;;4.18;2.35;;;;;;;19.10;78.53;101178.78;5064935;28;20040;-70
2023/07/08 04:22:49;;;;;;;5.85;2.15;;;;;;;19.18;77.91;101183.16;5057179;28;20136;-68
2023/07/08 04:25:14;;;;;;;5.45;2.40;;;;;;;19.25;76.79;101184.06;5063638;28;20112;-67
2023/07/08 04:27:41;;;;;;;3.75;2.60;;;;;;;19.45;75.52;101198.31;5061436;28;20029;-70
2023/07/08 04:30:09;;;;;;;3.33;2.25;;;;;;;19.60;74.42;101206.25;5065016;28;20069;-69
2023/07/08 04:32:37;;;;;;;3.85;2.15;;;;;;;19.71;74.04;101204.97;5067950;28;20024;-69
2023/07/08 04:35:03;;;;;;;6.22;2.58;;;;;;;19.67;74.24;101201.06;5063969;28;20028;-68
2023/07/08 04:37:28;;;;;;;3.60;1.92;;;;;;;19.57;75.04;101197.88;5071059;28;20029;-69
2023/07/08 04:39:54;;;;;;;4.65;2.63;;;;;;;19.47;75.80;101192.84;5064938;28;20045;-68
2023/07/08 04:42:19;;;;;;;5.57;2.88;;;;;;;19.44;76.56;101204.59;5056000;28;20116;-69
2023/07/08 04:44:45;;;;;;;5.32;2.35;;;;;;;19.38;77.41;101196.59;5062009;28;20044;-70
2023/07/08 04:47:12;;;;;;;7.57;2.63;;;;;;;19.43;76.97;101200.31;5067699;28;20369;-69
2023/07/08 04:49:37;;;;;;;11.82;2.80;;;;;;;19.49;76.91;101190.84;5065207;28;20032;-66
2023/07/08 04:52:03;;;;;;;3.75;2.22;;;;;;;19.49;77.05;101190.84;5064065;28;20037;-65
2023/07/08 04:54:29;;;;;;;5.75;2.88;;;;;;;19.51;77.24;101192.31;5070588;28;20082;-68
2023/07/08 04:56:55;;;;;;;5.82;2.78;;;;;;;19.54;77.06;101189.31;5062587;28;20024;-68
2023/07/08 04:59:23;;;;;;;6.22;2.45;;;;;;;19.57;77.02;101182.03;5066947;28;20411;-67
2023/07/08 05:01:48;;;;;;;4.40;2.58;;;;;;;19.65;77.00;101189.84;5067139;28;20028;-67
2023/07/08 05:04:16;;;;;;;7.70;3.88;;;;;;;19.71;76.69;101184.63;5067985;28;20384;-67
2023/07/08 05:06:41;;;;;;;9.15;3.67;;;;;;;19.73;76.64;101181.81;5066536;28;20454;-68
2023/07/08 05:09:07;;;;;;;6.65;2.80;;;;;;;19.74;76.70;101183.44;5063685;28;20058;-68
2023/07/08 05:11:33;;;;;;;6.63;2.53;;;;;;;19.77;76.66;101186.53;5067896;28;20094;-67
2023/07/08 05:13:59;;;;;;;5.05;2.83;;;;;;;19.81;77.02;101185.16;5068479;28;20021;-68
2023/07/08 05:16:24;;;;;;;5.18;2.60;;;;;;;19.86;77.14;101187.22;5066260;28;20045;-68
2023/07/08 05:18:50;;;;;;;4.65;2.28;;;;;;;19.96;76.86;101182.44;5066486;28;20021;-67
2023/07/08 05:21:18;;;;;;;5.10;2.05;;;;;;;20.02;76.59;101181.69;5068351;28;20044;-65
2023/07/08 05:23:44;;;;;;;4.88;1.90;;;;;;;20.04;76.21;101179.69;5067405;28;20035;-67
2023/07/08 05:26:10;;;;;;;6.07;2.90;;;;;;;20.11;76.07;101177.91;5065007;28;20024;-66
2023/07/08 05:28:36;;;;;;;6.00;2.50;;;;;;;20.18;75.44;101172.69;5065991;28;20040;-67
2023/07/08 05:31:01;;;;;;;4.78;2.42;;;;;;;20.21;75.47;101170.47;5064715;28;20039;-66
2023/07/08 05:33:29;;;;;;;8.85;3.47;;;;;;;20.34;74.96;101171.56;5066661;28;20408;-67
2023/07/08 05:35:54;;;;;;;3.75;2.00;;;;;;;20.46;74.50;101175.38;5072566;28;20123;-67
2023/07/08 05:38:20;;;;;;;6.65;2.50;;;;;;;20.61;74.33;101172.63;5066841;28;20566;-67
2023/07/08 05:40:50;;;;;;;4.05;2.30;;;;;;;20.70;73.44;101174.94;5069106;28;20040;-66
2023/07/08 05:43:17;;;;;;;3.75;2.90;;;;;;;20.67;73.46;101177.97;5059538;28;20131;-67
2023/07/08 05:45:43;;;;;;;3.58;2.30;;;;;;;20.68;72.89;101174.31;5068053;28;20028;-66
2023/07/08 05:48:09;;;;;;;7.93;3.20;;;;;;;20.73;72.98;101179.88;5060197;28;20060;-67
2023/07/08 05:50:35;;;;;;;6.00;2.67;;;;;;;20.73;72.70;101177.22;5066256;28;20077;-67
2023/07/08 05:53:00;;;;;;;3.70;2.47;;;;;;;20.81;72.41;101182.34;5070384;28;20029;-67
2023/07/08 05:55:25;;;;;;;4.18;2.28;;;;;;;20.91;72.43;101167.94;5062292;28;20031;-68
2023/07/08 05:57:51;;;;;;;3.78;2.13;;;;;;;20.96;72.39;101173.47;5068120;28;20078;-68
2023/07/08 06:00:16;;;;;;;5.00;2.97;;;;;;;21.11;72.01;101172.34;5064400;28;20061;-67
2023/07/08 06:02:42;;;;;;;4.95;2.30;;;;;;;21.20;71.92;101165.03;5066474;28;20037;-67
2023/07/08 06:05:08;;;;;;;7.50;2.22;;;;;;;21.33;71.19;101165.09;5069120;28;20106;-67
2023/07/08 06:07:33;;;;;;;6.75;2.35;;;;;;;21.41;70.94;101162.28;5068305;28;20035;-68
2023/07/08 06:09:59;;;;;;;4.57;2.47;;;;;;;21.52;70.14;101161.72;5068241;28;20037;-68
2023/07/08 06:12:25;;;;;;;6.88;2.45;;;;;;;21.64;69.93;101156.66;5068785;28;20119;-69
2023/07/08 06:14:51;;;;;;;5.22;2.10;;;;;;;21.76;69.81;101157.69;5067810;28;20491;-69
2023/07/08 06:17:17;;;;;;;6.20;2.45;;;;;;;21.80;69.61;101150.97;5067778;28;20373;-68
2023/07/08 06:19:43;;;;;;;4.22;2.47;;;;;;;21.98;68.96;101153.03;5070751;28;20036;-68
2023/07/08 06:22:09;;;;;;;3.67;2.40;;;;;;;22.08;68.23;101153.47;5067527;28;20047;-69
2023/07/08 06:24:34;;;;;;;9.75;2.30;;;;;;;22.16;68.22;101158.59;5072082;28;20476;-69
2023/07/08 06:27:00;;;;;;;3.40;2.13;;;;;;;22.20;67.49;101155.53;5071708;28;20051;-68
2023/07/08 06:29:26;;;;;;;3.90;2.30;;;;;;;22.22;68.07;101153.47;5072415;28;20037;-68
2023/07/08 06:31:51;;;;;;;6.25;2.78;;;;;;;22.28;67.86;101155.31;5069667;28;20056;-69
2023/07/08 06:34:19;;;;;;;4.15;1.92;;;;;;;22.40;67.68;101158.97;5073063;28;20044;-69
2023/07/08 06:36:44;;;;;;;4.45;2.72;;;;;;;22.42;67.60;101146.31;5067837;28;20094;-69
2023/07/08 06:39:11;;;;;;;8.73;2.70;;;;;;;22.49;67.80;101153.25;5068803;28;20041;-68
2023/07/08 06:41:37;;;;;;;3.08;2.03;;;;;;;22.66;67.22;101145.69;5066988;28;20029;-68
2023/07/08 06:44:03;;;;;;;3.72;2.25;;;;;;;22.74;66.83;101147.28;5069294;28;20035;-69
2023/07/08 06:46:29;;;;;;;8.13;2.05;;;;;;;22.75;66.38;101147.06;5071304;28;20036;-68
2023/07/08 06:48:55;;;;;;;7.45;2.38;;;;;;;22.85;66.40;101141.38;5071701;28;20024;-69
2023/07/08 06:51:20;;;;;;;5.15;2.05;;;;;;;22.89;65.94;101136.44;5067129;28;20024;-68
2023/07/08 06:53:45;;;;;;;4.32;2.15;;;;;;;23.05;65.77;101143.97;5068189;28;20024;-67
2023/07/08 06:56:11;;;;;;;5.18;2.13;;;;;;;23.12;64.79;101134.13;5071014;28;20454;-68
2023/07/08 06:58:37;;;;;;;4.03;2.40;;;;;;;23.17;64.64;101126.31;5071285;28;20502;-69
2023/07/08 07:01:02;;;;;;;3.55;2.22;;;;;;;23.42;63.98;101124.56;5068090;28;20029;-68
2023/07/08 07:03:28;;;;;;;5.38;3.15;;;;;;;23.67;62.42;101129.97;5066973;28;20131;-67
2023/07/08 07:05:53;;;;;;;3.38;2.25;;;;;;;23.72;62.00;101126.66;5070121;28;20029;-68
2023/07/08 07:08:18;;;;;;;5.03;2.63;;;;;;;23.87;62.24;101123.69;5069575;28;20036;-69
2023/07/08 07:10:44;;;;;;;6.15;1.95;;;;;;;24.03;61.82;101115.19;5071387;28;20028;-69
2023/07/08 07:13:09;;;;;;;3.17;1.95;;;;;;;24.22;60.83;101118.69;5069428;28;20070;-69
2023/07/08 07:15:35;;;;;;;4.55;1.95;;;;;;;24.35;60.69;101116.75;5070947;28;20024;-68
2023/07/08 07:18:01;;;;;;;4.05;2.15;;;;;;;24.36;60.66;101121.06;5071512;28;20574;-68
2023/07/08 07:20:27;;;;;;;4.95;2.10;;;;;;;24.46;60.53;101108.06;5069330;28;20067;-68
2023/07/08 07:22:53;;;;;;;4.45;2.67;;;;;;;24.65;60.80;101103.53;5068592;28;20444;-69
2023/07/08 07:25:19;;;;;;;3.30;1.98;;;;;;;24.85;60.25;101105.16;5070452;28;20039;-68
2023/07/08 07:27:44;;;;;;;5.70;2.42;;;;;;;24.98;59.49;101105.06;5069875;28;20397;-68
2023/07/08 07:30:14;;;;;;;4.05;2.05;;;;;;;25.15;58.24;101100.72;5070284;28;20024;-69
2023/07/08 07:32:41;;;;;;;2.90;1.83;;;;;;;25.27;58.05;101106.91;5069022;28;20055;-69
2023/07/08 07:35:07;;;;;;;3.53;2.22;;;;;;;25.36;57.73;101108.22;5071272;28;20090;-69
2023/07/08 07:37:33;;;;;;;5.40;2.75;;;;;;;25.43;57.43;101108.97;5069010;28;20044;-69
2023/07/08 07:39:58;;;;;;;7.43;3.33;;;;;;;25.53;56.70;101105.72;5070957;28;20517;-68
2023/07/08 07:42:27;;;;;;;5.35;2.63;;;;;;;25.68;56.29;101111.47;5063683;28;20045;-68
2023/07/08 07:44:52;;;;;;;3.92;2.15;;;;;;;25.76;55.95;101105.81;5063802;28;20032;-69
2023/07/08 07:47:18;;;;;;;6.30;2.00;;;;;;;25.98;55.26;101105.28;5070930;28;20036;-68
2023/07/08 07:49:43;;;;;;;7.32;1.83;;;;;;;25.99;55.06;101094.38;5070497;28;20026;-68
2023/07/08 07:52:10;;;;;;;2.53;1.67;;;;;;;26.37;54.91;101093.13;5070980;28;20031;-69
2023/07/08 07:54:37;;;;;;;2.67;2.10;;;;;;;26.48;54.08;101083.44;5069951;28;20029;-66
2023/07/08 07:57:02;;;;;;;3.25;1.20;;;;;;;26.59;50.50;101087.97;5070714;28;20498;-68
2023/07/08 07:59:28;;;;;;;4.30;1.80;;;;;;;26.78;50.33;101095.59;5067842;28;20041;-69
2023/07/08 08:01:53;;;;;;;4.15;1.77;;;;;;;26.91;50.19;101089.19;5070825;28;20028;-66
2023/07/08 08:04:19;;;;;;;3.72;1.50;;;;;;;27.17;49.78;101087.81;5070378;28;20114;-70
2023/07/08 08:06:44;;;;;;;3.03;1.55;;;;;;;27.23;49.38;101094.09;5069142;28;20029;-69
2023/07/08 08:09:10;;;;;;;2.85;1.85;;;;;;;27.35;47.97;101090.31;5070577;28;20054;-69
2023/07/08 08:11:35;;;;;;;2.70;1.60;;;;;;;27.27;48.02;101089.88;5070125;28;20051;-69
2023/07/08 08:14:01;;;;;;;2.67;1.80;;;;;;;27.26;48.24;101083.72;5064308;28;20036;-66
2023/07/08 08:16:26;;;;;;;4.40;1.77;;;;;;;27.25;47.83;101087.44;5070812;28;20032;-66
2023/07/08 08:18:52;;;;;;;2.65;1.60;;;;;;;27.27;47.54;101084.53;5063095;28;20084;-66
2023/07/08 08:21:17;;;;;;;3.13;1.73;;;;;;;27.36;46.81;101086.56;5067971;28;20094;-69
2023/07/08 08:23:43;;;;;;;4.22;1.58;;;;;;;27.45;45.46;101092.31;5069004;28;20365;-66
2023/07/08 08:26:08;;;;;;;5.93;1.92;;;;;;;27.64;45.71;101090.28;5070276;28;20515;-67
2023/07/08 08:28:34;;;;;;;3.13;1.42;;;;;;;27.96;45.81;101093.19;5068865;28;20033;-69
2023/07/08 08:31:00;;;;;;;2.45;1.48;;;;;;;28.02;46.88;101100.25;5070288;28;20063;-70
2023/07/08 08:33:25;;;;;;;2.45;1.50;;;;;;;28.05;47.08;101097.09;5065976;28;20479;-69
2023/07/08 08:35:51;;;;;;;3.63;1.90;;;;;;;28.12;47.24;101104.97;5065395;28;20036;-67
2023/07/08 08:38:17;;;;;;;3.60;2.10;;;;;;;28.25;47.40;101101.97;5069905;28;20028;-67
2023/07/08 08:40:43;;;;;;;7.80;1.80;;;;;;;28.23;46.66;101104.91;5064302;28;20110;-66
2023/07/08 08:43:17;;;;;;;2.95;1.80;;;;;;;28.40;43.82;101102.16;5059830;28;20116;-66
2023/07/08 08:46:05;;;;;;;1.95;1.45;;;;;;;28.65;42.20;101096.34;5068434;28;20492;-66
2023/07/08 08:48:36;;;;;;;3.20;1.80;;;;;;;28.85;42.95;101098.47;5056851;28;20142;-67
2023/07/08 08:51:14;;;;;;;4.15;1.95;;;;;;;28.93;42.21;101087.31;5068820;28;20052;-67
2023/07/08 08:53:40;;;;;;;4.30;1.40;;;;;;;29.03;43.94;101090.13;5064431;28;20116;-66
2023/07/08 08:56:22;;;;;;;2.10;1.70;;;;;;;28.76;44.42;101092.75;5069444;28;20111;-67
2023/07/08 08:59:27;;;;;;;4.85;2.25;;;;;;;28.70;45.00;101091.88;5068346;28;20036;-67
2023/07/08 09:01:54;;;;;;;3.70;1.93;;;;;;;28.55;46.04;101086.31;5067140;28;20028;-66
2023/07/08 09:04:33;;;;;;;4.15;1.73;;;;;;;28.78;44.40;101087.13;5069447;28;20028;-68
2023/07/08 09:07:14;;;;;;;2.83;2.10;;;;;;;28.96;42.83;101081.44;5067283;28;20210;-69
2023/07/08 09:10:09;;;;;;;3.65;1.75;;;;;;;29.08;42.44;101087.50;5067444;28;20388;-66
2023/07/08 09:12:35;;;;;;;3.13;1.90;;;;;;;29.26;43.90;101089.84;5066614;28;20082;-65
2023/07/08 09:15:11;;;;;;;4.45;1.73;;;;;;;29.32;43.66;101091.47;5068485;28;20036;-66
2023/07/08 09:17:37;;;;;;;3.45;2.40;;;;;;;28.88;44.49;101089.94;5067622;28;21415;-69
2023/07/08 09:20:20;;;;;;;4.80;2.05;;;;;;;29.07;44.99;101083.19;5067612;28;20042;-66
2023/07/08 09:22:56;;;;;;;2.85;2.17;;;;;;;28.58;43.01;101085.81;5069051;28;20047;-66
2023/07/08 09:25:30;;;;;;;3.05;1.80;;;;;;;28.38;44.51;101086.34;5065007;28;20032;-67
2023/07/08 09:27:56;;;;;;;3.93;2.37;;;;;;;28.73;45.21;101099.41;5066526;28;20032;-68
2023/07/08 09:30:24;;;;;;;3.60;2.05;;;;;;;29.09;43.69;101099.03;5069195;28;20286;-66
2023/07/08 09:32:50;;;;;;;4.22;2.00;;;;;;;29.13;44.00;101094.78;5065675;28;20055;-65
2023/07/08 09:35:27;;;;;;;5.32;2.67;;;;;;;28.82;44.21;101096.31;5068293;28;20128;-65
2023/07/08 09:37:54;;;;;;;3.08;2.13;;;;;;;28.47;44.30;101100.13;5065865;28;20024;-66
2023/07/08 09:40:29;;;;;;;5.88;2.05;;;;;;;28.55;45.04;101097.03;5068362;28;20377;-66
2023/07/08 09:43:02;;;;;;;4.65;2.25;;;;;;;28.91;44.49;101086.75;5059107;28;20039;-66
2023/07/08 09:45:39;;;;;;;3.22;2.30;;;;;;;29.17;43.94;101083.31;5062967;28;20063;-66
2023/07/08 09:48:33;;;;;;;2.83;1.88;;;;;;;28.97;43.83;101089.25;5068270;28;20028;-65
2023/07/08 09:50:59;;;;;;;5.15;2.22;;;;;;;28.87;44.54;101086.44;5065168;28;20041;-66
2023/07/08 09:53:26;;;;;;;4.32;1.80;;;;;;;28.91;44.13;101090.25;5069515;28;20406;-65
2023/07/08 09:55:53;;;;;;;3.10;2.03;;;;;;;28.99;44.48;101097.03;5072894;28;20031;-65
2023/07/08 09:58:25;;;;;;;3.90;2.22;;;;;;;28.94;42.84;101087.06;5070351;28;20396;-66
2023/07/08 10:00:57;;;;;;;3.40;1.85;;;;;;;28.40;44.38;101089.59;5066085;28;20036;-66
2023/07/08 10:03:26;;;;;;;3.47;1.83;;;;;;;28.39;45.26;101092.50;5072308;28;20040;-66
2023/07/08 10:05:57;;;;;;;3.83;2.20;;;;;;;28.55;45.01;101094.34;5072511;28;20584;-66
2023/07/08 10:08:24;;;;;;;3.25;1.98;;;;;;;28.16;44.51;101096.19;5072107;28;20048;-65
2023/07/08 10:11:00;;;;;;;2.72;1.88;;;;;;;28.18;44.62;101090.59;5072293;28;20052;-66
2023/07/08 10:13:38;;;;;;;3.90;2.15;;;;;;;28.45;44.42;101088.84;5070353;28;20044;-66
2023/07/08 10:16:29;;;;;;;3.58;1.95;;;;;;;28.56;43.68;101092.47;5068840;28;20381;-66
2023/07/08 10:18:56;;;;;;;5.05;2.35;;;;;;;28.65;43.84;101088.31;5071954;28;20056;-65
2023/07/08 10:21:54;;;;;;;4.43;1.80;;;;;;;28.63;42.98;101085.06;5067954;28;20062;-66
2023/07/08 10:24:45;;;;;;;2.30;1.73;;;;;;;28.48;43.76;101090.22;5071154;28;20036;-66
2023/07/08 10:27:45;;;;;;;3.40;2.17;;;;;;;28.62;44.63;101097.66;5069235;28;20017;-65
2023/07/08 10:30:22;;;;;;;3.30;1.98;;;;;;;28.69;44.45;101097.47;5028168;28;20040;-66
2023/07/08 10:33:26;;;;;;;5.63;2.20;;;;;;;28.71;44.93;101096.16;5022543;28;20037;-65
2023/07/08 10:36:03;;;;;;;3.08;2.03;;;;;;;29.20;44.07;101085.47;5022252;28;20092;-66
2023/07/08 10:38:59;;;;;;;5.55;1.85;;;;;;;28.87;43.63;101093.69;5024893;28;20486;-66
2023/07/08 10:41:47;;;;;;;2.92;2.17;;;;;;;28.81;43.29;101089.31;4985541;28;20056;-67
2023/07/08 10:44:22;;;;;;;4.07;2.28;;;;;;;28.70;43.82;101083.81;5023901;28;20128;-68
2023/07/08 10:46:47;;;;;;;6.18;2.67;;;;;;;28.70;44.40;101091.06;5026934;28;20216;-65
2023/07/08 10:49:49;;;;;;;3.13;2.20;;;;;;;28.85;44.39;101085.88;5029434;28;20116;-66
2023/07/08 10:52:37;;;;;;;4.97;2.03;;;;;;;28.87;41.87;101093.69;4992287;28;20120;-66
2023/07/08 10:55:17;;;;;;;3.30;2.35;;;;;;;28.85;42.30;101090.44;5022375;28;20577;-66
2023/07/08 10:58:01;;;;;;;3.05;2.10;;;;;;;28.84;43.86;101078.09;5026960;28;20083;-66
2023/07/08 11:00:37;;;;;;;3.10;2.17;;;;;;;28.92;43.57;101080.34;5018302;28;20042;-66
2023/07/08 11:03:13;;;;;;;3.75;2.22;;;;;;;28.94;43.86;101083.56;5023857;28;20072;-66
2023/07/08 11:05:44;;;;;;;3.72;1.98;;;;;;;29.16;43.31;101078.19;5031523;28;20109;-66
2023/07/08 11:08:25;;;;;;;3.95;1.95;;;;;;;29.25;42.73;101077.47;5071384;28;20112;-67
2023/07/08 11:10:55;;;;;;;2.42;1.95;;;;;;;29.05;42.05;101082.63;5070277;28;20029;-66
2023/07/08 11:13:24;;;;;;;4.60;2.13;;;;;;;28.86;41.98;101075.97;5071532;28;20423;-67
2023/07/08 11:16:19;;;;;;;5.30;2.30;;;;;;;29.03;41.71;101090.13;5069623;28;20085;-65
2023/07/08 11:19:02;;;;;;;2.83;1.88;;;;;;;29.08;42.32;101090.19;5060287;28;20106;-67
2023/07/08 11:21:40;;;;;;;3.17;2.00;;;;;;;29.06;42.85;101089.63;5070591;28;20062;-64
2023/07/08 11:24:29;;;;;;;3.67;2.20;;;;;;;28.93;43.36;101090.00;5065070;28;20443;-66
2023/07/08 11:27:05;;;;;;;3.20;1.75;;;;;;;29.06;43.30;101086.94;5069647;28;20435;-67
2023/07/08 11:29:42;;;;;;;3.20;2.45;;;;;;;28.96;43.05;101076.91;5071001;28;20056;-66
2023/07/08 11:32:13;;;;;;;3.20;2.15;;;;;;;28.88;42.99;101080.03;5063909;28;20040;-66
2023/07/08 11:34:41;;;;;;;3.15;2.40;;;;;;;28.60;42.93;101078.31;5065634;28;20151;-65